sensor_id;sensor_type;location;lat;lon;timestamp;pressure;altitude;pressure_sealevel;temperature;humidity
40117;BME280;25829;50.228;18.936;2023-07-13T00:01:17;98197.00;;;18.54;73.85
40117;BME280;25829;50.228;18.936;2023-07-13T00:04:20;98200.72;;;18.48;74.09
40117;BME280;25829;50.228;18.936;2023-07-13T00:07:21;98211.41;;;18.43;73.39
40117;BME280;25829;50.228;18.936;2023-07-13T00:10:25;98225.84;;;18.47;73.59
40117;BME280;25829;50.228;18.936;2023-07-13T00:13:30;98240.00;;;18.58;73.48
40117;BME280;25829;50.228;18.936;2023-07-13T00:16:46;98235.47;;;18.69;73.39
40117;BME280;25829;50.228;18.936;2023-07-13T00:19:47;98228.53;;;18.73;72.71
40117;BME280;25829;50.228;18.936;2023-07-13T00:22:52;98217.56;;;18.79;72.51
40117;BME280;25829;50.228;18.936;2023-07-13T00:25:57;98216.53;;;18.85;72.61
40117;BME280;25829;50.228;18.936;2023-07-13T00:28:58;98214.66;;;18.86;72.80
40117;BME280;25829;50.228;18.936;2023-07-13T00:32:04;98220.25;;;18.79;73.16
40117;BME280;25829;50.228;18.936;2023-07-13T00:35:05;98219.47;;;18.74;73.22
40117;BME280;25829;50.228;18.936;2023-07-13T00:38:06;98204.75;;;18.66;74.21
40117;BME280;25829;50.228;18.936;2023-07-13T00:41:07;98201.00;;;18.52;75.17
40117;BME280;25829;50.228;18.936;2023-07-13T00:44:19;98196.19;;;18.44;75.69
40117;BME280;25829;50.228;18.936;2023-07-13T00:47:20;98196.44;;;18.32;75.42
40117;BME280;25829;50.228;18.936;2023-07-13T00:50:22;98194.84;;;18.36;74.96
40117;BME280;25829;50.228;18.936;2023-07-13T00:53:25;98201.25;;;18.40;74.58
40117;BME280;25829;50.228;18.936;2023-07-13T00:56:27;98208.19;;;18.51;74.44
40117;BME280;25829;50.228;18.936;2023-07-13T00:59:29;98198.31;;;18.62;74.32
40117;BME280;25829;50.228;18.936;2023-07-13T01:02:31;98201.28;;;18.66;74.30
40117;BME280;25829;50.228;18.936;2023-07-13T01:08:48;98161.75;;;18.68;74.59
40117;BME280;25829;50.228;18.936;2023-07-13T01:11:49;98156.66;;;18.71;74.83
40117;BME280;25829;50.228;18.936;2023-07-13T01:15:00;98166.81;;;18.74;75.03
40117;BME280;25829;50.228;18.936;2023-07-13T01:18:02;98163.06;;;18.75;75.28
40117;BME280;25829;50.228;18.936;2023-07-13T01:21:04;98185.25;;;18.71;75.49
40117;BME280;25829;50.228;18.936;2023-07-13T01:24:06;98198.09;;;18.74;75.57
40117;BME280;25829;50.228;18.936;2023-07-13T01:27:20;98205.00;;;18.80;75.48
40117;BME280;25829;50.228;18.936;2023-07-13T01:30:24;98208.81;;;18.84;75.00
40117;BME280;25829;50.228;18.936;2023-07-13T01:37:22;98199.94;;;18.83;75.39
40117;BME280;25829;50.228;18.936;2023-07-13T01:40:52;98207.94;;;18.83;75.40
40117;BME280;25829;50.228;18.936;2023-07-13T01:43:53;98203.19;;;18.85;75.55
40117;BME280;25829;50.228;18.936;2023-07-13T01:46:53;98211.75;;;18.88;75.65
40117;BME280;25829;50.228;18.936;2023-07-13T01:49:54;98228.31;;;18.90;75.48
40117;BME280;25829;50.228;18.936;2023-07-13T01:52:55;98215.47;;;18.86;75.47
40117;BME280;25829;50.228;18.936;2023-07-13T01:55:56;98211.44;;;18.79;75.38
40117;BME280;25829;50.228;18.936;2023-07-13T01:58:56;98206.63;;;18.71;75.67
40117;BME280;25829;50.228;18.936;2023-07-13T02:01:57;98201.81;;;18.68;75.37
40117;BME280;25829;50.228;18.936;2023-07-13T02:04:58;98171.34;;;18.69;75.21
40117;BME280;25829;50.228;18.936;2023-07-13T02:07:59;98151.84;;;18.58;74.87
40117;BME280;25829;50.228;18.936;2023-07-13T02:11:03;98145.44;;;18.54;75.10
40117;BME280;25829;50.228;18.936;2023-07-13T02:14:04;98166.25;;;18.52;75.26
40117;BME280;25829;50.228;18.936;2023-07-13T02:17:05;98142.47;;;18.45;75.53
40117;BME280;25829;50.228;18.936;2023-07-13T02:20:06;98128.84;;;18.42;75.65
40117;BME280;25829;50.228;18.936;2023-07-13T02:23:09;98118.47;;;18.40;75.70
40117;BME280;25829;50.228;18.936;2023-07-13T02:26:13;98117.66;;;18.29;75.97
40117;BME280;25829;50.228;18.936;2023-07-13T02:29:15;98128.03;;;18.21;75.91
40117;BME280;25829;50.228;18.936;2023-07-13T02:32:17;98122.47;;;18.22;76.23
40117;BME280;25829;50.228;18.936;2023-07-13T02:35:18;98113.66;;;18.22;76.10
40117;BME280;25829;50.228;18.936;2023-07-13T02:38:19;98111.75;;;18.12;76.40
40117;BME280;25829;50.228;18.936;2023-07-13T02:41:19;98104.00;;;18.05;76.63
40117;BME280;25829;50.228;18.936;2023-07-13T02:44:20;98096.50;;;17.97;76.96
40117;BME280;25829;50.228;18.936;2023-07-13T02:47:21;98101.03;;;17.91;77.16
40117;BME280;25829;50.228;18.936;2023-07-13T02:50:27;98097.31;;;17.98;76.87
40117;BME280;25829;50.228;18.936;2023-07-13T02:53:28;98094.94;;;18.06;76.71
40117;BME280;25829;50.228;18.936;2023-07-13T02:56:30;98101.59;;;18.09;76.57
40117;BME280;25829;50.228;18.936;2023-07-13T02:59:31;98105.63;;;18.11;76.53
40117;BME280;25829;50.228;18.936;2023-07-13T03:02:33;98119.22;;;18.10;76.47
40117;BME280;25829;50.228;18.936;2023-07-13T03:05:41;98126.09;;;17.96;77.26
40117;BME280;25829;50.228;18.936;2023-07-13T03:08:43;98147.44;;;17.85;77.23
40117;BME280;25829;50.228;18.936;2023-07-13T03:11:44;98148.22;;;17.86;77.49
40117;BME280;25829;50.228;18.936;2023-07-13T03:15:13;98154.16;;;17.98;77.57
40117;BME280;25829;50.228;18.936;2023-07-13T03:18:17;98165.63;;;17.99;77.15
40117;BME280;25829;50.228;18.936;2023-07-13T03:21:18;98173.94;;;18.02;76.92
40117;BME280;25829;50.228;18.936;2023-07-13T03:27:45;98197.72;;;18.14;77.20
40117;BME280;25829;50.228;18.936;2023-07-13T03:30:45;98200.94;;;18.16;76.94
40117;BME280;25829;50.228;18.936;2023-07-13T03:33:47;98190.25;;;18.16;77.26
40117;BME280;25829;50.228;18.936;2023-07-13T03:36:50;98188.09;;;18.08;78.16
40117;BME280;25829;50.228;18.936;2023-07-13T03:39:51;98187.78;;;17.99;78.32
40117;BME280;25829;50.228;18.936;2023-07-13T03:42:54;98188.34;;;18.01;78.18
40117;BME280;25829;50.228;18.936;2023-07-13T03:45:56;98205.97;;;18.07;78.28
40117;BME280;25829;50.228;18.936;2023-07-13T03:48:57;98201.69;;;18.06;78.45
40117;BME280;25829;50.228;18.936;2023-07-13T03:51:58;98198.22;;;18.01;78.75
40117;BME280;25829;50.228;18.936;2023-07-13T03:54:59;98217.41;;;17.98;79.27
40117;BME280;25829;50.228;18.936;2023-07-13T03:58:23;98210.78;;;18.05;79.41
40117;BME280;25829;50.228;18.936;2023-07-13T04:01:25;98206.28;;;18.16;78.82
40117;BME280;25829;50.228;18.936;2023-07-13T04:04:34;98217.25;;;18.30;78.31
40117;BME280;25829;50.228;18.936;2023-07-13T04:07:35;98220.75;;;18.40;77.92
40117;BME280;25829;50.228;18.936;2023-07-13T04:10:35;98222.88;;;18.49;77.94
40117;BME280;25829;50.228;18.936;2023-07-13T04:13:39;98234.66;;;18.58;77.90
40117;BME280;25829;50.228;18.936;2023-07-13T04:16:40;98236.28;;;18.64;77.47
40117;BME280;25829;50.228;18.936;2023-07-13T04:19:41;98227.19;;;18.65;77.33
40117;BME280;25829;50.228;18.936;2023-07-13T04:22:42;98229.06;;;18.64;77.33
40117;BME280;25829;50.228;18.936;2023-07-13T04:25:47;98233.34;;;18.60;77.39
40117;BME280;25829;50.228;18.936;2023-07-13T04:28:52;98241.09;;;18.57;77.85
40117;BME280;25829;50.228;18.936;2023-07-13T04:31:52;98226.41;;;18.59;77.96
40117;BME280;25829;50.228;18.936;2023-07-13T04:34:53;98214.91;;;18.69;77.98
40117;BME280;25829;50.228;18.936;2023-07-13T04:37:56;98212.22;;;18.79;77.71
40117;BME280;25829;50.228;18.936;2023-07-13T04:41:00;98205.03;;;18.90;77.95
40117;BME280;25829;50.228;18.936;2023-07-13T04:44:01;98197.03;;;18.95;77.83
40117;BME280;25829;50.228;18.936;2023-07-13T04:47:03;98189.53;;;19.02;77.35
40117;BME280;25829;50.228;18.936;2023-07-13T04:50:04;98199.97;;;19.09;77.39
40117;BME280;25829;50.228;18.936;2023-07-13T04:53:05;98202.88;;;19.18;77.29
40117;BME280;25829;50.228;18.936;2023-07-13T04:56:06;98201.28;;;19.27;77.39
40117;BME280;25829;50.228;18.936;2023-07-13T04:59:07;98189.22;;;19.34;77.34
40117;BME280;25829;50.228;18.936;2023-07-13T05:02:08;98182.25;;;19.44;77.22
40117;BME280;25829;50.228;18.936;2023-07-13T05:05:09;98179.00;;;19.52;77.05
40117;BME280;25829;50.228;18.936;2023-07-13T05:08:13;98184.84;;;19.59;77.08
40117;BME280;25829;50.228;18.936;2023-07-13T05:11:14;98193.44;;;19.56;77.08
40117;BME280;25829;50.228;18.936;2023-07-13T05:18:11;98189.94;;;19.61;77.25
40117;BME280;25829;50.228;18.936;2023-07-13T05:21:22;98196.09;;;19.66;77.18
40117;BME280;25829;50.228;18.936;2023-07-13T05:24:29;98192.63;;;19.71;76.61
40117;BME280;25829;50.228;18.936;2023-07-13T05:30:59;98198.44;;;19.83;76.30
40117;BME280;25829;50.228;18.936;2023-07-13T05:34:00;98199.50;;;19.87;76.55
40117;BME280;25829;50.228;18.936;2023-07-13T05:37:06;98189.28;;;19.94;76.65
40117;BME280;25829;50.228;18.936;2023-07-13T05:44:07;98179.59;;;20.09;76.22
40117;BME280;25829;50.228;18.936;2023-07-13T05:47:07;98169.88;;;20.18;76.04
40117;BME280;25829;50.228;18.936;2023-07-13T05:50:08;98174.09;;;20.29;75.98
40117;BME280;25829;50.228;18.936;2023-07-13T05:53:09;98160.13;;;20.37;76.20
40117;BME280;25829;50.228;18.936;2023-07-13T05:56:10;98166.25;;;20.48;76.69
40117;BME280;25829;50.228;18.936;2023-07-13T06:11:37;98174.06;;;20.73;75.91
40117;BME280;25829;50.228;18.936;2023-07-13T06:14:40;98175.63;;;20.80;75.51
40117;BME280;25829;50.228;18.936;2023-07-13T06:17:41;98174.22;;;20.87;74.85
40117;BME280;25829;50.228;18.936;2023-07-13T06:20:42;98178.44;;;20.98;74.68
40117;BME280;25829;50.228;18.936;2023-07-13T06:23:44;98175.63;;;21.09;74.88
40117;BME280;25829;50.228;18.936;2023-07-13T06:26:45;98173.41;;;21.21;74.52
40117;BME280;25829;50.228;18.936;2023-07-13T06:29:46;98174.63;;;21.34;74.82
40117;BME280;25829;50.228;18.936;2023-07-13T06:32:46;98168.84;;;21.45;74.57
40117;BME280;25829;50.228;18.936;2023-07-13T06:35:47;98169.81;;;21.55;74.02
40117;BME280;25829;50.228;18.936;2023-07-13T06:38:48;98173.63;;;21.73;74.06
40117;BME280;25829;50.228;18.936;2023-07-13T06:41:49;98177.22;;;21.87;73.30
40117;BME280;25829;50.228;18.936;2023-07-13T06:44:50;98180.09;;;21.96;72.18
40117;BME280;25829;50.228;18.936;2023-07-13T06:47:50;98184.50;;;22.05;71.69
40117;BME280;25829;50.228;18.936;2023-07-13T06:59:19;98183.59;;;22.34;70.19
40117;BME280;25829;50.228;18.936;2023-07-13T07:02:20;98194.63;;;22.32;69.26
40117;BME280;25829;50.228;18.936;2023-07-13T07:08:59;98205.50;;;22.22;69.10
40117;BME280;25829;50.228;18.936;2023-07-13T07:11:59;98213.78;;;22.26;69.71
40117;BME280;25829;50.228;18.936;2023-07-13T07:15:00;98232.31;;;22.27;70.75
40117;BME280;25829;50.228;18.936;2023-07-13T07:18:01;98234.72;;;22.29;70.91
40117;BME280;25829;50.228;18.936;2023-07-13T07:21:02;98229.84;;;22.31;70.94
40117;BME280;25829;50.228;18.936;2023-07-13T07:24:04;98242.72;;;22.34;71.44
40117;BME280;25829;50.228;18.936;2023-07-13T07:27:05;98247.56;;;22.32;71.64
40117;BME280;25829;50.228;18.936;2023-07-13T07:30:07;98247.56;;;22.32;71.58
40117;BME280;25829;50.228;18.936;2023-07-13T07:33:08;98248.94;;;22.29;71.71
40117;BME280;25829;50.228;18.936;2023-07-13T07:36:08;98254.09;;;22.26;71.92
40117;BME280;25829;50.228;18.936;2023-07-13T07:39:09;98264.69;;;22.17;72.56
40117;BME280;25829;50.228;18.936;2023-07-13T07:42:10;98255.63;;;22.13;72.56
40117;BME280;25829;50.228;18.936;2023-07-13T07:45:11;98261.84;;;22.08;72.72
40117;BME280;25829;50.228;18.936;2023-07-13T07:48:12;98252.75;;;22.04;72.97
40117;BME280;25829;50.228;18.936;2023-07-13T07:51:12;98247.09;;;22.06;73.10
40117;BME280;25829;50.228;18.936;2023-07-13T07:54:13;98248.41;;;22.08;73.46
40117;BME280;25829;50.228;18.936;2023-07-13T07:57:15;98246.25;;;22.10;73.33
40117;BME280;25829;50.228;18.936;2023-07-13T08:00:16;98237.63;;;22.13;73.39
40117;BME280;25829;50.228;18.936;2023-07-13T08:03:17;98235.63;;;22.19;73.05
40117;BME280;25829;50.228;18.936;2023-07-13T08:06:18;98233.41;;;22.26;73.22
40117;BME280;25829;50.228;18.936;2023-07-13T08:09:20;98235.38;;;22.39;73.31
40117;BME280;25829;50.228;18.936;2023-07-13T08:12:21;98234.94;;;22.51;73.26
40117;BME280;25829;50.228;18.936;2023-07-13T08:15:24;98243.69;;;22.62;72.85
40117;BME280;25829;50.228;18.936;2023-07-13T08:18:25;98228.78;;;22.70;72.18
40117;BME280;25829;50.228;18.936;2023-07-13T08:21:25;98223.09;;;22.71;71.76
40117;BME280;25829;50.228;18.936;2023-07-13T08:24:26;98221.34;;;22.80;71.92
40117;BME280;25829;50.228;18.936;2023-07-13T08:27:28;98221.19;;;22.91;71.49
40117;BME280;25829;50.228;18.936;2023-07-13T08:30:29;98215.31;;;23.02;70.57
40117;BME280;25829;50.228;18.936;2023-07-13T08:34:00;98226.44;;;23.15;69.13
40117;BME280;25829;50.228;18.936;2023-07-13T08:37:02;98226.03;;;23.21;68.70
40117;BME280;25829;50.228;18.936;2023-07-13T08:40:03;98225.91;;;23.31;67.44
40117;BME280;25829;50.228;18.936;2023-07-13T08:43:13;98229.91;;;23.34;66.79
40117;BME280;25829;50.228;18.936;2023-07-13T08:49:29;98234.47;;;23.47;65.75
40117;BME280;25829;50.228;18.936;2023-07-13T08:56:24;98239.28;;;23.50;64.76
40117;BME280;25829;50.228;18.936;2023-07-13T09:03:23;98236.56;;;23.50;65.33
40117;BME280;25829;50.228;18.936;2023-07-13T09:06:33;98237.47;;;23.46;64.08
40117;BME280;25829;50.228;18.936;2023-07-13T09:10:12;98247.03;;;23.38;62.87
40117;BME280;25829;50.228;18.936;2023-07-13T09:13:37;98239.84;;;23.33;62.96
40117;BME280;25829;50.228;18.936;2023-07-13T09:27:53;98250.41;;;22.97;64.60
40117;BME280;25829;50.228;18.936;2023-07-13T09:31:03;98248.03;;;22.77;65.29
40117;BME280;25829;50.228;18.936;2023-07-13T09:34:09;98256.38;;;22.56;65.75
40117;BME280;25829;50.228;18.936;2023-07-13T09:37:10;98255.09;;;22.30;66.12
40117;BME280;25829;50.228;18.936;2023-07-13T09:40:21;98268.53;;;22.11;66.47
40117;BME280;25829;50.228;18.936;2023-07-13T09:43:31;98283.03;;;21.86;66.12
40117;BME280;25829;50.228;18.936;2023-07-13T09:46:32;98284.38;;;21.59;66.15
40117;BME280;25829;50.228;18.936;2023-07-13T09:53:20;98309.84;;;20.98;65.48
40117;BME280;25829;50.228;18.936;2023-07-13T09:56:28;98324.78;;;20.60;65.24
40117;BME280;25829;50.228;18.936;2023-07-13T09:59:41;98350.94;;;20.24;65.43
40117;BME280;25829;50.228;18.936;2023-07-13T10:02:41;98351.84;;;19.89;66.13
40117;BME280;25829;50.228;18.936;2023-07-13T10:05:45;98370.56;;;19.53;67.05
40117;BME280;25829;50.228;18.936;2023-07-13T10:08:46;98368.13;;;19.10;68.46
40117;BME280;25829;50.228;18.936;2023-07-13T10:11:50;98350.13;;;18.70;69.45
40117;BME280;25829;50.228;18.936;2023-07-13T10:19:17;98372.72;;;17.95;71.72
40117;BME280;25829;50.228;18.936;2023-07-13T10:22:32;98377.41;;;17.77;73.01
40117;BME280;25829;50.228;18.936;2023-07-13T10:25:42;98386.06;;;17.57;75.18
40117;BME280;25829;50.228;18.936;2023-07-13T10:28:47;98379.19;;;17.34;75.15
40117;BME280;25829;50.228;18.936;2023-07-13T10:31:51;98379.75;;;17.09;77.11
40117;BME280;25829;50.228;18.936;2023-07-13T10:34:55;98375.81;;;16.90;77.13
40117;BME280;25829;50.228;18.936;2023-07-13T10:38:04;98376.44;;;16.75;77.96
40117;BME280;25829;50.228;18.936;2023-07-13T10:41:21;98373.66;;;16.65;78.32
40117;BME280;25829;50.228;18.936;2023-07-13T10:44:30;98383.28;;;16.66;78.53
40117;BME280;25829;50.228;18.936;2023-07-13T10:47:34;98384.81;;;16.62;79.02
40117;BME280;25829;50.228;18.936;2023-07-13T10:50:40;98380.84;;;16.64;78.85
40117;BME280;25829;50.228;18.936;2023-07-13T10:53:43;98384.13;;;16.71;79.02
40117;BME280;25829;50.228;18.936;2023-07-13T10:56:45;98393.78;;;16.78;78.95
40117;BME280;25829;50.228;18.936;2023-07-13T11:00:14;98392.13;;;16.93;79.03
40117;BME280;25829;50.228;18.936;2023-07-13T11:10:58;98401.69;;;17.16;78.87
40117;BME280;25829;50.228;18.936;2023-07-13T11:14:05;98395.63;;;17.21;78.14
40117;BME280;25829;50.228;18.936;2023-07-13T11:20:39;98406.50;;;17.47;78.41
40117;BME280;25829;50.228;18.936;2023-07-13T11:23:43;98399.06;;;17.49;78.45
40117;BME280;25829;50.228;18.936;2023-07-13T11:29:49;98410.25;;;17.45;77.45
40117;BME280;25829;50.228;18.936;2023-07-13T11:36:17;98409.56;;;17.60;77.66
40117;BME280;25829;50.228;18.936;2023-07-13T11:39:24;98418.94;;;17.63;77.30
40117;BME280;25829;50.228;18.936;2023-07-13T11:42:31;98403.00;;;17.73;77.69
40117;BME280;25829;50.228;18.936;2023-07-13T11:45:32;98413.47;;;17.85;77.87
40117;BME280;25829;50.228;18.936;2023-07-13T11:48:58;98421.41;;;17.75;76.90
40117;BME280;25829;50.228;18.936;2023-07-13T11:52:11;98422.94;;;17.65;77.32
40117;BME280;25829;50.228;18.936;2023-07-13T11:55:18;98419.94;;;17.57;77.96
40117;BME280;25829;50.228;18.936;2023-07-13T11:58:28;98428.09;;;17.45;77.60
40117;BME280;25829;50.228;18.936;2023-07-13T12:01:46;98434.56;;;17.54;78.24
40117;BME280;25829;50.228;18.936;2023-07-13T12:05:14;98428.25;;;17.65;78.28
40117;BME280;25829;50.228;18.936;2023-07-13T12:08:27;98427.25;;;17.72;77.65
40117;BME280;25829;50.228;18.936;2023-07-13T12:11:35;98434.31;;;17.88;78.07
40117;BME280;25829;50.228;18.936;2023-07-13T12:22:59;98443.00;;;18.43;76.80
40117;BME280;25829;50.228;18.936;2023-07-13T12:26:02;98441.75;;;18.60;76.73
40117;BME280;25829;50.228;18.936;2023-07-13T12:29:06;98436.72;;;18.79;76.73
40117;BME280;25829;50.228;18.936;2023-07-13T12:32:17;98437.63;;;18.95;76.44
40117;BME280;25829;50.228;18.936;2023-07-13T12:35:18;98434.44;;;19.03;76.24
40117;BME280;25829;50.228;18.936;2023-07-13T12:38:19;98437.94;;;19.09;75.39
40117;BME280;25829;50.228;18.936;2023-07-13T12:41:23;98442.22;;;19.15;75.55
40117;BME280;25829;50.228;18.936;2023-07-13T12:44:30;98448.94;;;19.23;75.69
40117;BME280;25829;50.228;18.936;2023-07-13T12:47:40;98446.53;;;19.26;75.62
40117;BME280;25829;50.228;18.936;2023-07-13T12:50:47;98459.38;;;19.34;75.95
40117;BME280;25829;50.228;18.936;2023-07-13T12:54:13;98449.50;;;19.45;76.05
40117;BME280;25829;50.228;18.936;2023-07-13T12:57:16;98443.91;;;19.57;75.64
40117;BME280;25829;50.228;18.936;2023-07-13T13:03:31;98444.47;;;19.74;74.61
40117;BME280;25829;50.228;18.936;2023-07-13T13:06:34;98459.72;;;19.79;75.00
40117;BME280;25829;50.228;18.936;2023-07-13T13:09:39;98461.34;;;19.85;74.67
40117;BME280;25829;50.228;18.936;2023-07-13T13:12:45;98461.84;;;19.97;74.96
40117;BME280;25829;50.228;18.936;2023-07-13T13:15:45;98455.72;;;20.02;74.71
40117;BME280;25829;50.228;18.936;2023-07-13T13:19:26;98456.50;;;20.13;74.89
40117;BME280;25829;50.228;18.936;2023-07-13T13:22:36;98467.47;;;20.11;74.11
40117;BME280;25829;50.228;18.936;2023-07-13T13:32:15;98465.31;;;20.18;73.62
40117;BME280;25829;50.228;18.936;2023-07-13T13:35:18;98463.47;;;20.19;73.30
40117;BME280;25829;50.228;18.936;2023-07-13T13:38:24;98468.00;;;20.18;73.15
40117;BME280;25829;50.228;18.936;2023-07-13T13:41:26;98464.53;;;20.13;72.85
40117;BME280;25829;50.228;18.936;2023-07-13T13:44:27;98464.78;;;20.11;72.88
40117;BME280;25829;50.228;18.936;2023-07-13T13:47:32;98460.22;;;20.12;72.86
40117;BME280;25829;50.228;18.936;2023-07-13T13:50:44;98467.75;;;20.10;72.75
40117;BME280;25829;50.228;18.936;2023-07-13T13:53:47;98469.06;;;20.07;72.95
40117;BME280;25829;50.228;18.936;2023-07-13T13:56:50;98475.22;;;20.08;73.14
40117;BME280;25829;50.228;18.936;2023-07-13T13:59:51;98470.41;;;20.04;73.07
40117;BME280;25829;50.228;18.936;2023-07-13T14:02:53;98473.91;;;20.00;72.82
40117;BME280;25829;50.228;18.936;2023-07-13T14:06:03;98483.53;;;20.01;72.97
40117;BME280;25829;50.228;18.936;2023-07-13T14:09:05;98483.81;;;19.99;73.00
40117;BME280;25829;50.228;18.936;2023-07-13T14:16:17;98491.31;;;19.92;72.98
40117;BME280;25829;50.228;18.936;2023-07-13T14:19:19;98487.84;;;19.92;73.06
40117;BME280;25829;50.228;18.936;2023-07-13T14:22:20;98477.13;;;19.97;72.93
40117;BME280;25829;50.228;18.936;2023-07-13T14:25:21;98464.00;;;20.11;72.83
40117;BME280;25829;50.228;18.936;2023-07-13T14:28:26;98482.72;;;20.26;72.32
40117;BME280;25829;50.228;18.936;2023-07-13T14:31:28;98473.59;;;20.32;71.73
40117;BME280;25829;50.228;18.936;2023-07-13T14:34:29;98471.47;;;20.34;71.54
40117;BME280;25829;50.228;18.936;2023-07-13T14:37:30;98475.47;;;20.37;71.57
40117;BME280;25829;50.228;18.936;2023-07-13T14:40:31;98463.41;;;20.39;71.40
40117;BME280;25829;50.228;18.936;2023-07-13T14:43:32;98458.31;;;20.43;71.04
40117;BME280;25829;50.228;18.936;2023-07-13T14:46:34;98458.88;;;20.50;70.45
40117;BME280;25829;50.228;18.936;2023-07-13T14:49:40;98465.53;;;20.58;70.18
40117;BME280;25829;50.228;18.936;2023-07-13T14:52:43;98457.50;;;20.58;69.80
40117;BME280;25829;50.228;18.936;2023-07-13T14:55:44;98459.13;;;20.48;69.02
40117;BME280;25829;50.228;18.936;2023-07-13T14:58:45;98465.31;;;20.44;68.75
40117;BME280;25829;50.228;18.936;2023-07-13T15:01:49;98475.22;;;20.43;68.76
40117;BME280;25829;50.228;18.936;2023-07-13T15:04:50;98486.47;;;20.45;69.36
40117;BME280;25829;50.228;18.936;2023-07-13T15:07:52;98479.75;;;20.48;69.00
40117;BME280;25829;50.228;18.936;2023-07-13T15:10:56;98476.00;;;20.54;68.58
40117;BME280;25829;50.228;18.936;2023-07-13T15:14:00;98464.75;;;20.57;67.90
40117;BME280;25829;50.228;18.936;2023-07-13T15:21:34;98467.41;;;20.57;67.59
40117;BME280;25829;50.228;18.936;2023-07-13T15:32:21;98456.09;;;20.70;67.23
40117;BME280;25829;50.228;18.936;2023-07-13T15:39:27;98451.31;;;20.67;66.69
40117;BME280;25829;50.228;18.936;2023-07-13T15:56:55;98482.97;;;20.35;67.11
40117;BME280;25829;50.228;18.936;2023-07-13T15:59:58;98477.13;;;20.22;67.43
40117;BME280;25829;50.228;18.936;2023-07-13T16:03:00;98471.50;;;20.09;67.66
40117;BME280;25829;50.228;18.936;2023-07-13T16:06:01;98461.06;;;19.97;67.90
40117;BME280;25829;50.228;18.936;2023-07-13T16:09:03;98469.91;;;19.92;68.13
40117;BME280;25829;50.228;18.936;2023-07-13T16:12:32;98473.09;;;19.94;68.73
40117;BME280;25829;50.228;18.936;2023-07-13T16:15:34;98476.59;;;19.90;68.32
40117;BME280;25829;50.228;18.936;2023-07-13T16:18:34;98476.06;;;19.88;68.19
40117;BME280;25829;50.228;18.936;2023-07-13T16:21:48;98473.41;;;19.88;67.69
40117;BME280;25829;50.228;18.936;2023-07-13T16:24:51;98475.25;;;19.87;67.24
40117;BME280;25829;50.228;18.936;2023-07-13T16:27:59;98470.69;;;19.93;67.37
40117;BME280;25829;50.228;18.936;2023-07-13T16:31:05;98468.28;;;19.96;67.26
40117;BME280;25829;50.228;18.936;2023-07-13T16:34:09;98462.66;;;20.03;67.20
40117;BME280;25829;50.228;18.936;2023-07-13T16:40:26;98479.78;;;20.07;66.19
40117;BME280;25829;50.228;18.936;2023-07-13T16:43:27;98485.69;;;20.09;66.23
40117;BME280;25829;50.228;18.936;2023-07-13T16:46:28;98480.59;;;20.08;66.07
40117;BME280;25829;50.228;18.936;2023-07-13T16:49:32;98475.25;;;20.13;66.11
40117;BME280;25829;50.228;18.936;2023-07-13T16:52:35;98479.25;;;20.15;65.71
40117;BME280;25829;50.228;18.936;2023-07-13T16:55:37;98481.66;;;20.17;65.19
40117;BME280;25829;50.228;18.936;2023-07-13T16:58:38;98486.75;;;20.18;65.65
40117;BME280;25829;50.228;18.936;2023-07-13T17:01:39;98495.03;;;20.22;65.57
40117;BME280;25829;50.228;18.936;2023-07-13T17:14:32;98491.81;;;20.40;64.71
40117;BME280;25829;50.228;18.936;2023-07-13T17:17:35;98489.13;;;20.40;64.85
40117;BME280;25829;50.228;18.936;2023-07-13T17:20:52;98489.69;;;20.42;65.06
40117;BME280;25829;50.228;18.936;2023-07-13T17:23:55;98495.59;;;20.44;64.96
40117;BME280;25829;50.228;18.936;2023-07-13T17:26:57;98494.22;;;20.42;64.91
40117;BME280;25829;50.228;18.936;2023-07-13T17:29:58;98510.03;;;20.38;65.29
40117;BME280;25829;50.228;18.936;2023-07-13T17:32:58;98523.72;;;20.37;65.87
40117;BME280;25829;50.228;18.936;2023-07-13T17:36:02;98518.59;;;20.35;66.23
40117;BME280;25829;50.228;18.936;2023-07-13T17:39:17;98522.09;;;20.31;66.20
40117;BME280;25829;50.228;18.936;2023-07-13T17:42:18;98506.00;;;20.25;66.42
40117;BME280;25829;50.228;18.936;2023-07-13T17:45:23;98511.69;;;20.19;67.11
40117;BME280;25829;50.228;18.936;2023-07-13T17:48:25;98513.25;;;20.15;67.71
40117;BME280;25829;50.228;18.936;2023-07-13T17:54:49;98513.53;;;20.13;68.49
40117;BME280;25829;50.228;18.936;2023-07-13T17:57:50;98516.22;;;20.13;68.57
40117;BME280;25829;50.228;18.936;2023-07-13T18:00:51;98507.38;;;20.13;68.17
40117;BME280;25829;50.228;18.936;2023-07-13T18:03:52;98512.47;;;20.09;68.09
40117;BME280;25829;50.228;18.936;2023-07-13T18:06:58;98527.47;;;20.10;68.11
40117;BME280;25829;50.228;18.936;2023-07-13T18:10:13;98530.94;;;20.05;68.58
40117;BME280;25829;50.228;18.936;2023-07-13T18:13:14;98530.69;;;20.02;68.68
40117;BME280;25829;50.228;18.936;2023-07-13T18:16:37;98529.88;;;20.01;69.25
40117;BME280;25829;50.228;18.936;2023-07-13T18:31:58;98542.66;;;19.64;70.22
40117;BME280;25829;50.228;18.936;2023-07-13T18:34:59;98540.72;;;19.49;70.72
40117;BME280;25829;50.228;18.936;2023-07-13T18:38:01;98551.69;;;19.37;71.16
40117;BME280;25829;50.228;18.936;2023-07-13T18:41:01;98546.00;;;19.28;71.53
40117;BME280;25829;50.228;18.936;2023-07-13T18:44:02;98540.38;;;19.20;71.53
40117;BME280;25829;50.228;18.936;2023-07-13T18:47:03;98543.03;;;19.15;71.74
40117;BME280;25829;50.228;18.936;2023-07-13T18:50:15;98545.41;;;19.11;71.86
40117;BME280;25829;50.228;18.936;2023-07-13T18:53:17;98556.34;;;19.04;72.16
40117;BME280;25829;50.228;18.936;2023-07-13T18:56:18;98559.81;;;19.00;72.16
40117;BME280;25829;50.228;18.936;2023-07-13T18:59:19;98552.81;;;18.94;72.29